Time;durP1;ratioP1;P1;durP2;ratioP2;P2;SDS_P1;SDS_P2;PMS_P1;PMS_P2;Temp;Humidity;BMP_temperature;BMP_pressure;BME280_temperature;BME280_humidity;BME280_pressure;Samples;Min_cycle;Max_cycle;Signal;HPM_P1;HPM_P2
2021/01/13 00:00:38;;;;;;;;;;;;;;;;;;5018027;28;20331;-65
2021/01/13 00:03:04;;;;;;;;;;;;;;;;;;5014633;28;19926;-67
2021/01/13 00:05:31;;;;;;;;;;;;;;;;;;5014459;28;20409;-65
2021/01/13 00:07:57;;;;;;;;;;;;;;;;;;5010997;28;19929;-65
2021/01/13 00:10:24;;;;;;;;;;;;;;;;;;5014127;28;19932;-66
2021/01/13 00:12:50;;;;;;;;;;;;;;;;;;5018497;28;20406;-65
2021/01/13 00:15:17;;;;;;;;;;;;;;;;;;5014181;28;19929;-65
2021/01/13 00:17:43;;;;;;;;;;;;;;;;;;5013639;28;20403;-65
2021/01/13 00:20:10;;;;;;;;;;;;;;;;;;5013914;28;19940;-66
2021/01/13 00:22:36;;;;;;;;;;;;;;;;;;5045276;23;19934;-69
2021/01/13 00:25:03;;;;;;;;;;;;;;;;;;5006174;28;19953;-69
2021/01/13 00:27:29;;;;;;;;;;;;;;;;;;5005203;28;19926;-68
2021/01/13 00:29:56;;;;;;;;;;;;;;;;;;5003592;28;19936;-70
2021/01/13 00:32:22;;;;;;;;;;;;;;;;;;5002091;28;20418;-70
2021/01/13 00:34:49;;;;;;;;;;;;;;;;;;4994914;28;19926;-69
2021/01/13 00:37:16;;;;;;;;;;;;;;;;;;4993854;28;20370;-69
2021/01/13 00:39:42;;;;;;;;;;;;;;;;;;4993879;28;20388;-69
2021/01/13 00:42:09;;;;;;;;;;;;;;;;;;4993469;28;20012;-70
2021/01/13 00:44:35;;;;;;;;;;;;;;;;;;4993476;28;19925;-70
2021/01/13 00:47:02;;;;;;;;;;;;;;;;;;4994596;28;20610;-69
2021/01/13 00:49:28;;;;;;;;;;;;;;;;;;4993809;28;19926;-68
2021/01/13 00:51:57;;;;;;;;;;;;;;;;;;4993392;28;19934;-68
2021/01/13 00:54:24;;;;;;;;;;;;;;;;;;4993381;28;20338;-69
2021/01/13 00:56:50;;;;;;;;;;;;;;;;;;4993415;28;19975;-69
2021/01/13 00:59:19;;;;;;;;;;;;;;;;;;4993207;28;19929;-68
2021/01/13 01:01:45;;;;;;;;;;;;;;;;;;4993281;28;20017;-69
2021/01/13 01:04:12;;;;;;;;;;;;;;;;;;4993078;28;19932;-70
2021/01/13 01:06:38;;;;;;;;;;;;;;;;;;4992448;28;19930;-68
2021/01/13 01:09:05;;;;;;;;;;;;;;;;;;4991965;28;19932;-68
2021/01/13 01:11:31;;;;;;;;;;;;;;;;;;4993079;28;19926;-71
2021/01/13 01:13:58;;;;;;;;;;;;;;;;;;4991709;28;19926;-69
2021/01/13 01:16:24;;;;;;;;;;;;;;;;;;4991654;28;20239;-69
2021/01/13 01:18:51;;;;;;;;;;;;;;;;;;4992372;28;20303;-69
2021/01/13 01:21:17;;;;;;;;;;;;;;;;;;4992794;28;19932;-68
2021/01/13 01:23:44;;;;;;;;;;;;;;;;;;4991965;28;19930;-71
2021/01/13 01:26:10;;;;;;;;;;;;;;;;;;4992380;28;19932;-69
2021/01/13 01:28:37;;;;;;;;;;;;;;;;;;4992436;28;20450;-69
2021/01/13 01:31:03;;;;;;;;;;;;;;;;;;4991969;28;19961;-67
2021/01/13 01:33:30;;;;;;;;;;;;;;;;;;4993512;28;19932;-68
2021/01/13 01:35:56;;;;;;;;;;;;;;;;;;4992166;28;19926;-68
2021/01/13 01:38:23;;;;;;;;;;;;;;;;;;4992272;28;19925;-68
2021/01/13 01:40:49;;;;;;;;;;;;;;;;;;4992268;28;20020;-68
2021/01/13 01:43:16;;;;;;;;;;;;;;;;;;4992740;28;19937;-69
2021/01/13 01:45:42;;;;;;;;;;;;;;;;;;4992530;28;19981;-69
2021/01/13 01:48:09;;;;;;;;;;;;;;;;;;4991449;28;19933;-69
2021/01/13 01:50:35;;;;;;;;;;;;;;;;;;4993191;28;19968;-69
2021/01/13 01:53:02;;;;;;;;;;;;;;;;;;4992322;28;19980;-68
2021/01/13 01:55:28;;;;;;;;;;;;;;;;;;4991613;28;19987;-69
2021/01/13 01:57:55;;;;;;;;;;;;;;;;;;4992419;28;19930;-70
2021/01/13 02:00:30;;;;;;;;;;;;;;;;;;4993010;28;20029;-70
2021/01/13 02:02:56;;;;;;;;;;;;;;;;;;4988588;28;19980;-69
2021/01/13 02:05:23;;;;;;;;;;;;;;;;;;4992158;28;20020;-69
2021/01/13 02:07:49;;;;;;;;;;;;;;;;;;4991153;28;20355;-68
2021/01/13 02:10:16;;;;;;;;;;;;;;;;;;4991022;28;19937;-69
2021/01/13 02:12:42;;;;;;;;;;;;;;;;;;4992242;28;19940;-68
2021/01/13 02:15:09;;;;;;;;;;;;;;;;;;4991684;28;20519;-68
2021/01/13 02:17:35;;;;;;;;;;;;;;;;;;4991220;28;19940;-69
2021/01/13 02:20:02;;;;;;;;;;;;;;;;;;4991001;28;20034;-71
2021/01/13 02:22:28;;;;;;;;;;;;;;;;;;4991589;28;19932;-72
2021/01/13 02:24:55;;;;;;;;;;;;;;;;;;4991898;28;19929;-69
2021/01/13 02:27:21;;;;;;;;;;;;;;;;;;4991988;28;20459;-69
2021/01/13 02:29:48;;;;;;;;;;;;;;;;;;4990950;28;19940;-69
2021/01/13 02:32:14;;;;;;;;;;;;;;;;;;4991174;28;20009;-68
2021/01/13 02:34:41;;;;;;;;;;;;;;;;;;4991539;28;19932;-68
2021/01/13 02:37:07;;;;;;;;;;;;;;;;;;4990850;28;19948;-69
2021/01/13 02:39:34;;;;;;;;;;;;;;;;;;4991153;28;19925;-67
2021/01/13 02:42:00;;;;;;;;;;;;;;;;;;4991199;28;19934;-68
2021/01/13 02:44:27;;;;;;;;;;;;;;;;;;4990935;28;19926;-70
2021/01/13 02:46:53;;;;;;;;;;;;;;;;;;4990440;28;19929;-69
2021/01/13 02:49:19;;;;;;;;;;;;;;;;;;4990785;28;20069;-70
2021/01/13 02:51:46;;;;;;;;;;;;;;;;;;4991468;28;20028;-68
2021/01/13 02:54:12;;;;;;;;;;;;;;;;;;4990697;28;20028;-70
2021/01/13 02:56:39;;;;;;;;;;;;;;;;;;4990711;28;20350;-69
2021/01/13 02:59:06;;;;;;;;;;;;;;;;;;4989998;28;20021;-66
2021/01/13 03:01:32;;;;;;;;;;;;;;;;;;4991732;28;19925;-66
2021/01/13 03:03:59;;;;;;;;;;;;;;;;;;4990636;28;19941;-67
2021/01/13 03:06:25;;;;;;;;;;;;;;;;;;4990476;28;20245;-67
2021/01/13 03:08:52;;;;;;;;;;;;;;;;;;4991439;28;20235;-68
2021/01/13 03:11:18;;;;;;;;;;;;;;;;;;4991136;28;20014;-67
2021/01/13 03:13:45;;;;;;;;;;;;;;;;;;4991357;28;20459;-70
2021/01/13 03:16:11;;;;;;;;;;;;;;;;;;4991295;28;19926;-67
2021/01/13 03:18:38;;;;;;;;;;;;;;;;;;4990283;28;19929;-70
2021/01/13 03:21:04;;;;;;;;;;;;;;;;;;4990547;28;20300;-67
2021/01/13 03:23:31;;;;;;;;;;;;;;;;;;4990351;28;19932;-70
2021/01/13 03:25:57;;;;;;;;;;;;;;;;;;4990483;28;19926;-69
2021/01/13 03:28:24;;;;;;;;;;;;;;;;;;4990928;28;19926;-70
2021/01/13 03:30:50;;;;;;;;;;;;;;;;;;4990940;28;19926;-70
2021/01/13 03:33:17;;;;;;;;;;;;;;;;;;4994889;28;19979;-69
2021/01/13 03:35:43;;;;;;;;;;;;;;;;;;4994724;28;20362;-69
2021/01/13 03:38:10;;;;;;;;;;;;;;;;;;4994293;28;19934;-69
2021/01/13 03:40:38;;;;;;;;;;;;;;;;;;4994884;28;20435;-70
2021/01/13 03:43:04;;;;;;;;;;;;;;;;;;4994986;28;19926;-69
2021/01/13 03:45:31;;;;;;;;;;;;;;;;;;4994143;28;19925;-68
2021/01/13 03:47:57;;;;;;;;;;;;;;;;;;4994093;28;20287;-68
2021/01/13 03:50:23;;;;;;;;;;;;;;;;;;4994600;28;19965;-71
2021/01/13 03:52:50;;;;;;;;;;;;;;;;;;4994621;28;19932;-67
2021/01/13 03:55:16;;;;;;;;;;;;;;;;;;4994615;28;19925;-68
2021/01/13 03:57:43;;;;;;;;;;;;;;;;;;4994617;28;20012;-68
2021/01/13 04:00:09;;;;;;;;;;;;;;;;;;4994047;28;19930;-67
2021/01/13 04:02:36;;;;;;;;;;;;;;;;;;4992977;28;19926;-69
2021/01/13 04:05:02;;;;;;;;;;;;;;;;;;4993388;28;20532;-68
2021/01/13 04:07:29;;;;;;;;;;;;;;;;;;4994405;28;19984;-67
2021/01/13 04:09:55;;;;;;;;;;;;;;;;;;4992959;28;19926;-68
2021/01/13 04:12:22;;;;;;;;;;;;;;;;;;4994171;28;19937;-71
2021/01/13 04:14:48;;;;;;;;;;;;;;;;;;4988207;28;19932;-68
2021/01/13 04:17:15;;;;;;;;;;;;;;;;;;4993388;28;19932;-69
2021/01/13 04:19:41;;;;;;;;;;;;;;;;;;4994395;28;19926;-70
2021/01/13 04:22:08;;;;;;;;;;;;;;;;;;4993741;28;20022;-69
2021/01/13 04:24:34;;;;;;;;;;;;;;;;;;4993788;28;19957;-69
2021/01/13 04:27:01;;;;;;;;;;;;;;;;;;4993187;28;19930;-69
2021/01/13 04:29:27;;;;;;;;;;;;;;;;;;4993189;28;19932;-69
2021/01/13 04:31:54;;;;;;;;;;;;;;;;;;4993299;28;19940;-70
2021/01/13 04:34:20;;;;;;;;;;;;;;;;;;4995349;28;19932;-67
2021/01/13 04:36:47;;;;;;;;;;;;;;;;;;4993772;28;19969;-68
2021/01/13 04:39:13;;;;;;;;;;;;;;;;;;4994176;28;20378;-70
2021/01/13 04:41:40;;;;;;;;;;;;;;;;;;4993719;28;19933;-68
2021/01/13 04:44:06;;;;;;;;;;;;;;;;;;4993706;28;19926;-68
2021/01/13 04:46:33;;;;;;;;;;;;;;;;;;4995160;28;19926;-67
2021/01/13 04:48:59;;;;;;;;;;;;;;;;;;4996518;28;20388;-67
2021/01/13 04:51:26;;;;;;;;;;;;;;;;;;4996738;28;19930;-67
2021/01/13 04:53:52;;;;;;;;;;;;;;;;;;4995161;28;19979;-67
2021/01/13 04:56:19;;;;;;;;;;;;;;;;;;4996050;28;19975;-69
2021/01/13 04:58:45;;;;;;;;;;;;;;;;;;4996878;28;19932;-68
2021/01/13 05:01:12;;;;;;;;;;;;;;;;;;4996328;28;19940;-67
2021/01/13 05:03:38;;;;;;;;;;;;;;;;;;4996244;28;20020;-69
2021/01/13 05:06:05;;;;;;;;;;;;;;;;;;4996021;28;19925;-67
2021/01/13 05:08:31;;;;;;;;;;;;;;;;;;4994756;28;20395;-67
2021/01/13 05:10:58;;;;;;;;;;;;;;;;;;4993413;28;19932;-67
2021/01/13 05:13:24;;;;;;;;;;;;;;;;;;4994721;28;19926;-67
2021/01/13 05:15:51;;;;;;;;;;;;;;;;;;4995544;28;20431;-67
2021/01/13 05:18:17;;;;;;;;;;;;;;;;;;4993631;28;19957;-67
2021/01/13 05:20:44;;;;;;;;;;;;;;;;;;4995587;28;19972;-68
2021/01/13 05:23:10;;;;;;;;;;;;;;;;;;4994666;28;20348;-67
2021/01/13 05:25:37;;;;;;;;;;;;;;;;;;4995058;28;19932;-66
2021/01/13 05:28:04;;;;;;;;;;;;;;;;;;4995254;28;19926;-67
2021/01/13 05:30:31;;;;;;;;;;;;;;;;;;4995469;28;20261;-67
2021/01/13 05:32:57;;;;;;;;;;;;;;;;;;4995141;28;19948;-67
2021/01/13 05:35:24;;;;;;;;;;;;;;;;;;4996165;28;20034;-69
2021/01/13 05:37:50;;;;;;;;;;;;;;;;;;5001602;28;19926;-67
2021/01/13 05:40:17;;;;;;;;;;;;;;;;;;5000930;28;19987;-69
2021/01/13 05:42:43;;;;;;;;;;;;;;;;;;4998054;28;20419;-67
2021/01/13 05:45:10;;;;;;;;;;;;;;;;;;4994852;28;20036;-68
2021/01/13 05:47:36;;;;;;;;;;;;;;;;;;5005644;28;19985;-68
2021/01/13 05:50:03;;;;;;;;;;;;;;;;;;5005785;28;19986;-68
2021/01/13 05:52:29;;;;;;;;;;;;;;;;;;5005673;28;20011;-68
2021/01/13 05:54:56;;;;;;;;;;;;;;;;;;5003855;28;20388;-67
2021/01/13 05:57:22;;;;;;;;;;;;;;;;;;4994347;28;19925;-68
2021/01/13 05:59:49;;;;;;;;;;;;;;;;;;4993978;28;19942;-68
2021/01/13 06:02:15;;;;;;;;;;;;;;;;;;4994382;28;19926;-68
2021/01/13 06:04:42;;;;;;;;;;;;;;;;;;4987663;28;19984;-67
2021/01/13 06:07:08;;;;;;;;;;;;;;;;;;4984686;28;20091;-66
2021/01/13 06:09:35;;;;;;;;;;;;;;;;;;4987608;28;19956;-67
2021/01/13 06:12:01;;;;;;;;;;;;;;;;;;4987444;28;19925;-67
2021/01/13 06:14:28;;;;;;;;;;;;;;;;;;4989583;28;19930;-67
2021/01/13 06:16:54;;;;;;;;;;;;;;;;;;4990204;28;19979;-68
2021/01/13 06:19:21;;;;;;;;;;;;;;;;;;4996374;28;21360;-68
2021/01/13 06:21:47;;;;;;;;;;;;;;;;;;4994638;28;20483;-66
2021/01/13 06:24:14;;;;;;;;;;;;;;;;;;4991026;28;19926;-67
2021/01/13 06:26:40;;;;;;;;;;;;;;;;;;4988103;28;20319;-67
2021/01/13 06:29:07;;;;;;;;;;;;;;;;;;4984073;28;19930;-66
2021/01/13 06:31:33;;;;;;;;;;;;;;;;;;4989478;28;19925;-66
2021/01/13 06:34:00;;;;;;;;;;;;;;;;;;4983060;28;19940;-69
2021/01/13 06:36:26;;;;;;;;;;;;;;;;;;4984518;28;19926;-68
2021/01/13 06:38:53;;;;;;;;;;;;;;;;;;4983519;28;19937;-67
2021/01/13 06:41:20;;;;;;;;;;;;;;;;;;4984917;28;19940;-68
2021/01/13 06:43:46;;;;;;;;;;;;;;;;;;4985254;28;20310;-68
2021/01/13 06:46:13;;;;;;;;;;;;;;;;;;4984694;28;19926;-68
2021/01/13 06:48:39;;;;;;;;;;;;;;;;;;4989583;28;19952;-67
2021/01/13 06:51:06;;;;;;;;;;;;;;;;;;4981299;28;20699;-67
2021/01/13 06:53:32;;;;;;;;;;;;;;;;;;4987095;28;19956;-69
2021/01/13 06:55:59;;;;;;;;;;;;;;;;;;4995903;28;19934;-67
2021/01/13 06:58:25;;;;;;;;;;;;;;;;;;4988176;28;19937;-67
2021/01/13 07:00:52;;;;;;;;;;;;;;;;;;4983994;28;19934;-67
2021/01/13 07:03:18;;;;;;;;;;;;;;;;;;4986174;28;19979;-67
2021/01/13 07:05:45;;;;;;;;;;;;;;;;;;4987232;28;20024;-67
2021/01/13 07:08:11;;;;;;;;;;;;;;;;;;4994950;28;19932;-68
2021/01/13 07:10:38;;;;;;;;;;;;;;;;;;4994459;28;19932;-67
2021/01/13 07:13:04;;;;;;;;;;;;;;;;;;4991897;28;19926;-68
2021/01/13 07:15:31;;;;;;;;;;;;;;;;;;4993965;28;19936;-68
2021/01/13 07:17:57;;;;;;;;;;;;;;;;;;4994073;28;19926;-68
2021/01/13 07:20:24;;;;;;;;;;;;;;;;;;4993916;28;19954;-68
2021/01/13 07:22:50;;;;;;;;;;;;;;;;;;4992677;28;19930;-67
2021/01/13 07:25:17;;;;;;;;;;;;;;;;;;4995226;28;19983;-68
2021/01/13 07:27:44;;;;;;;;;;;;;;;;;;4993028;28;20295;-68
2021/01/13 07:30:10;;;;;;;;;;;;;;;;;;4993621;28;20009;-68
2021/01/13 07:32:39;;;;;;;;;;;;;;;;;;4990802;28;19925;-66
2021/01/13 07:35:05;;;;;;;;;;;;;;;;;;4993507;28;19925;-66
2021/01/13 07:37:32;;;;;;;;;;;;;;;;;;4992603;28;19926;-66
2021/01/13 07:39:58;;;;;;;;;;;;;;;;;;4994234;28;20040;-67
2021/01/13 07:42:25;;;;;;;;;;;;;;;;;;4989539;28;20277;-67
2021/01/13 07:44:51;;;;;;;;;;;;;;;;;;4993987;28;20013;-67
2021/01/13 07:47:18;;;;;;;;;;;;;;;;;;4993586;28;20341;-66
2021/01/13 07:49:47;;;;;;;;;;;;;;;;;;4992313;28;20088;-66
2021/01/13 07:52:14;;;;;;;;;;;;;;;;;;4991131;28;19926;-66
2021/01/13 07:54:40;;;;;;;;;;;;;;;;;;4989950;28;19933;-68
2021/01/13 07:57:07;;;;;;;;;;;;;;;;;;4991788;28;19936;-66
2021/01/13 07:59:34;;;;;;;;;;;;;;;;;;4989725;28;19933;-66
2021/01/13 08:02:03;;;;;;;;;;;;;;;;;;4988675;28;19965;-66
2021/01/13 08:04:30;;;;;;;;;;;;;;;;;;4989733;28;19936;-66
2021/01/13 08:06:56;;;;;;;;;;;;;;;;;;4992871;28;19940;-67
2021/01/13 08:09:23;;;;;;;;;;;;;;;;;;4991268;28;20365;-68
2021/01/13 08:11:49;;;;;;;;;;;;;;;;;;4987888;28;19969;-68
2021/01/13 08:14:15;;;;;;;;;;;;;;;;;;4989947;28;19997;-67
2021/01/13 08:16:45;;;;;;;;;;;;;;;;;;4987927;28;20019;-66
2021/01/13 08:19:13;;;;;;;;;;;;;;;;;;4987292;28;23107;-67
2021/01/13 08:21:50;;;;;;;;;;;;;;;;;;4980950;28;19940;-67
2021/01/13 08:24:21;;;;;;;;;;;;;;;;;;4990561;28;20400;-67
2021/01/13 08:26:48;;;;;;;;;;;;;;;;;;4987834;28;19965;-67
2021/01/13 08:29:14;;;;;;;;;;;;;;;;;;4989785;28;19948;-67
2021/01/13 08:31:41;;;;;;;;;;;;;;;;;;4984400;28;19936;-67
2021/01/13 08:34:07;;;;;;;;;;;;;;;;;;4993100;28;20319;-69
2021/01/13 08:36:35;;;;;;;;;;;;;;;;;;4991492;28;20012;-69
2021/01/13 08:39:01;;;;;;;;;;;;;;;;;;4989646;28;19933;-66
2021/01/13 08:41:28;;;;;;;;;;;;;;;;;;4988368;28;20308;-68
2021/01/13 08:43:54;;;;;;;;;;;;;;;;;;4989260;28;19926;-68
2021/01/13 08:46:21;;;;;;;;;;;;;;;;;;4989278;28;19930;-68
2021/01/13 08:48:47;;;;;;;;;;;;;;;;;;4988192;28;19925;-66
2021/01/13 08:51:14;;;;;;;;;;;;;;;;;;4987767;28;20288;-66
2021/01/13 08:53:41;;;;;;;;;;;;;;;;;;4990610;28;19930;-67
2021/01/13 08:56:07;;;;;;;;;;;;;;;;;;4989933;28;20300;-67
2021/01/13 08:58:34;;;;;;;;;;;;;;;;;;4988799;28;20028;-68
2021/01/13 09:01:00;;;;;;;;;;;;;;;;;;4986814;28;19933;-67
2021/01/13 09:03:27;;;;;;;;;;;;;;;;;;4986362;28;19930;-68
2021/01/13 09:05:53;;;;;;;;;;;;;;;;;;4987089;28;19977;-68
2021/01/13 09:08:19;;;;;;;;;;;;;;;;;;4986935;28;19987;-66
2021/01/13 09:10:46;;;;;;;;;;;;;;;;;;4988434;28;19930;-67
2021/01/13 09:13:13;;;;;;;;;;;;;;;;;;4981842;28;19960;-67
2021/01/13 09:15:39;;;;;;;;;;;;;;;;;;4988342;28;19930;-68
2021/01/13 09:18:05;;;;;;;;;;;;;;;;;;4986999;28;20031;-67
2021/01/13 09:20:32;;;;;;;;;;;;;;;;;;4985066;28;20004;-68
2021/01/13 09:22:59;;;;;;;;;;;;;;;;;;4985288;28;19972;-66
2021/01/13 09:25:25;;;;;;;;;;;;;;;;;;4987859;28;19940;-67
2021/01/13 09:27:52;;;;;;;;;;;;;;;;;;4987533;28;19933;-67
2021/01/13 09:30:18;;;;;;;;;;;;;;;;;;4986748;28;20304;-68
2021/01/13 09:32:44;;;;;;;;;;;;;;;;;;4986151;28;20017;-68
2021/01/13 09:35:11;;;;;;;;;;;;;;;;;;4987864;28;19935;-67
2021/01/13 09:37:37;;;;;;;;;;;;;;;;;;4988697;28;20307;-66
2021/01/13 09:40:04;;;;;;;;;;;;;;;;;;4988518;28;20308;-65
2021/01/13 09:42:30;;;;;;;;;;;;;;;;;;4985998;28;20318;-67
2021/01/13 09:44:57;;;;;;;;;;;;;;;;;;4987537;28;20329;-69
2021/01/13 09:47:23;;;;;;;;;;;;;;;;;;4989464;28;20330;-69
2021/01/13 09:49:50;;;;;;;;;;;;;;;;;;4989485;28;20395;-69
2021/01/13 09:52:16;;;;;;;;;;;;;;;;;;4985969;28;19925;-69
2021/01/13 09:54:43;;;;;;;;;;;;;;;;;;4983063;28;20045;-69
2021/01/13 09:57:09;;;;;;;;;;;;;;;;;;4978370;28;19930;-67
2021/01/13 09:59:37;;;;;;;;;;;;;;;;;;4975856;28;19957;-69
2021/01/13 10:02:03;;;;;;;;;;;;;;;;;;4975179;28;19988;-68
2021/01/13 10:04:30;;;;;;;;;;;;;;;;;;4974919;28;20005;-69
2021/01/13 10:07:01;;;;;;;;;;;;;;;;;;4975189;28;20487;-69
2021/01/13 10:09:28;;;;;;;;;;;;;;;;;;4974227;28;20458;-69
2021/01/13 10:11:54;;;;;;;;;;;;;;;;;;4974899;28;19930;-68
2021/01/13 10:14:21;;;;;;;;;;;;;;;;;;4979255;28;19980;-68
2021/01/13 10:16:47;;;;;;;;;;;;;;;;;;4987143;28;19926;-68
2021/01/13 10:19:14;;;;;;;;;;;;;;;;;;4988193;28;19969;-65
2021/01/13 10:21:40;;;;;;;;;;;;;;;;;;4986847;28;20454;-65
2021/01/13 10:24:07;;;;;;;;;;;;;;;;;;4991311;28;19925;-68
2021/01/13 10:26:33;;;;;;;;;;;;;;;;;;4993677;28;20020;-67
2021/01/13 10:29:00;;;;;;;;;;;;;;;;;;4987580;28;20025;-66
2021/01/13 10:31:26;;;;;;;;;;;;;;;;;;4986166;28;19932;-67
2021/01/13 10:33:53;;;;;;;;;;;;;;;;;;4991978;28;20003;-68
2021/01/13 10:36:19;;;;;;;;;;;;;;;;;;4986705;28;19933;-69
2021/01/13 10:38:46;;;;;;;;;;;;;;;;;;4984916;28;19933;-69
2021/01/13 10:41:12;;;;;;;;;;;;;;;;;;4987023;28;19925;-68
2021/01/13 10:43:39;;;;;;;;;;;;;;;;;;4993321;28;19988;-70
2021/01/13 10:46:06;;;;;;;;;;;;;;;;;;4993155;28;19940;-66
2021/01/13 10:48:33;;;;;;;;;;;;;;;;;;4988362;28;20354;-68
2021/01/13 10:50:59;;;;;;;;;;;;;;;;;;4986251;28;20036;-67
2021/01/13 10:53:26;;;;;;;;;;;;;;;;;;4987197;28;19932;-66
2021/01/13 10:55:52;;;;;;;;;;;;;;;;;;4988256;28;20533;-68
2021/01/13 10:58:19;;;;;;;;;;;;;;;;;;4989421;28;19925;-68
2021/01/13 11:00:45;;;;;;;;;;;;;;;;;;4990031;28;19936;-67
2021/01/13 11:03:12;;;;;;;;;;;;;;;;;;4994213;28;20005;-67
2021/01/13 11:05:39;;;;;;;;;;;;;;;;;;4996256;28;19934;-64
2021/01/13 11:08:05;;;;;;;;;;;;;;;;;;4989123;28;19933;-68
2021/01/13 11:10:32;;;;;;;;;;;;;;;;;;4991782;28;19926;-68
2021/01/13 11:12:58;;;;;;;;;;;;;;;;;;4998892;28;19977;-68
2021/01/13 11:15:25;;;;;;;;;;;;;;;;;;5003122;28;19932;-67
2021/01/13 11:17:51;;;;;;;;;;;;;;;;;;4996809;28;19956;-67
2021/01/13 11:20:18;;;;;;;;;;;;;;;;;;4991270;28;19936;-68
2021/01/13 11:22:44;;;;;;;;;;;;;;;;;;4988512;28;19926;-67
2021/01/13 11:25:11;;;;;;;;;;;;;;;;;;4991321;28;19934;-66
2021/01/13 11:27:37;;;;;;;;;;;;;;;;;;4990098;28;20439;-66
2021/01/13 11:30:04;;;;;;;;;;;;;;;;;;4989855;28;19980;-66
2021/01/13 11:32:30;;;;;;;;;;;;;;;;;;4987051;28;20376;-66
2021/01/13 11:34:57;;;;;;;;;;;;;;;;;;4987481;28;20020;-67
2021/01/13 11:37:23;;;;;;;;;;;;;;;;;;4986633;28;19926;-67
2021/01/13 11:39:50;;;;;;;;;;;;;;;;;;4988070;28;19945;-65
2021/01/13 11:42:17;;;;;;;;;;;;;;;;;;4985497;28;19925;-67
2021/01/13 11:44:43;;;;;;;;;;;;;;;;;;4985931;28;19930;-67
2021/01/13 11:47:10;;;;;;;;;;;;;;;;;;4985994;28;19932;-68
2021/01/13 11:49:36;;;;;;;;;;;;;;;;;;4986393;28;19926;-65
2021/01/13 11:52:08;;;;;;;;;;;;;;;;;;4986489;28;20319;-66
2021/01/13 11:54:34;;;;;;;;;;;;;;;;;;4990646;28;20347;-67
2021/01/13 11:57:01;;;;;;;;;;;;;;;;;;4990956;28;19929;-68
2021/01/13 11:59:27;;;;;;;;;;;;;;;;;;4991871;28;20387;-71
2021/01/13 12:01:54;;;;;;;;;;;;;;;;;;4990256;28;20363;-67
2021/01/13 12:04:20;;;;;;;;;;;;;;;;;;4990719;28;19940;-68
2021/01/13 12:06:47;;;;;;;;;;;;;;;;;;4987542;28;19940;-66
2021/01/13 12:09:13;;;;;;;;;;;;;;;;;;4989085;28;20565;-66
2021/01/13 12:11:40;;;;;;;;;;;;;;;;;;4988495;28;20462;-67
2021/01/13 12:14:06;;;;;;;;;;;;;;;;;;4988729;28;19929;-67
2021/01/13 12:16:32;;;;;;;;;;;;;;;;;;4988490;28;19992;-69
2021/01/13 12:18:59;;;;;;;;;;;;;;;;;;4988637;28;20355;-68
2021/01/13 12:21:28;;;;;;;;;;;;;;;;;;4988636;28;20339;-68
2021/01/13 12:23:54;;;;;;;;;;;;;;;;;;4997153;23;19925;-68
2021/01/13 12:26:22;;;;;;;;;;;;;;;;;;4991115;28;20016;-65
2021/01/13 12:28:49;;;;;;;;;;;;;;;;;;4992012;28;19944;-66
2021/01/13 12:31:15;;;;;;;;;;;;;;;;;;4991719;28;20028;-66
2021/01/13 12:33:42;;;;;;;;;;;;;;;;;;4991898;28;19932;-66
2021/01/13 12:36:08;;;;;;;;;;;;;;;;;;4987452;28;19933;-66
2021/01/13 12:38:35;;;;;;;;;;;;;;;;;;4989581;28;19926;-65
2021/01/13 12:41:01;;;;;;;;;;;;;;;;;;4989523;28;19926;-64
2021/01/13 12:43:27;;;;;;;;;;;;;;;;;;4992186;28;20008;-65
2021/01/13 12:45:54;;;;;;;;;;;;;;;;;;4995717;28;19930;-68
2021/01/13 12:48:20;;;;;;;;;;;;;;;;;;4999527;28;20029;-68
2021/01/13 12:50:47;;;;;;;;;;;;;;;;;;5001522;28;19992;-67
2021/01/13 12:53:14;;;;;;;;;;;;;;;;;;4994633;28;21069;-67
2021/01/13 12:55:40;;;;;;;;;;;;;;;;;;4989850;28;19934;-65
2021/01/13 12:58:08;;;;;;;;;;;;;;;;;;5003358;28;19925;-66
2021/01/13 13:00:36;;;;;;;;;;;;;;;;;;5006713;28;19934;-68
2021/01/13 13:03:03;;;;;;;;;;;;;;;;;;5005175;28;19933;-66
2021/01/13 13:05:29;;;;;;;;;;;;;;;;;;5001916;28;20395;-67
2021/01/13 13:07:56;;;;;;;;;;;;;;;;;;4988280;28;19932;-67
2021/01/13 13:10:22;;;;;;;;;;;;;;;;;;4987890;28;19926;-65
2021/01/13 13:12:49;;;;;;;;;;;;;;;;;;4989554;28;19935;-66
2021/01/13 13:15:15;;;;;;;;;;;;;;;;;;4988172;28;19940;-67
2021/01/13 13:17:41;;;;;;;;;;;;;;;;;;4987357;28;19993;-66
2021/01/13 13:20:08;;;;;;;;;;;;;;;;;;4988716;28;19926;-66
2021/01/13 13:22:34;;;;;;;;;;;;;;;;;;4987691;28;20414;-67
2021/01/13 13:25:01;;;;;;;;;;;;;;;;;;4988669;28;19940;-64
2021/01/13 13:27:28;;;;;;;;;;;;;;;;;;4987146;28;20456;-66
2021/01/13 13:29:54;;;;;;;;;;;;;;;;;;4989371;28;19926;-65
2021/01/13 13:32:20;;;;;;;;;;;;;;;;;;4987917;28;19930;-66
2021/01/13 13:34:47;;;;;;;;;;;;;;;;;;4989732;28;20325;-66
2021/01/13 13:37:13;;;;;;;;;;;;;;;;;;4987937;28;19937;-66
2021/01/13 13:39:40;;;;;;;;;;;;;;;;;;4987984;28;19934;-65
2021/01/13 13:42:06;;;;;;;;;;;;;;;;;;4987936;28;19980;-69
2021/01/13 13:44:33;;;;;;;;;;;;;;;;;;4990695;28;19965;-69
2021/01/13 13:46:59;;;;;;;;;;;;;;;;;;4989465;28;19929;-69
2021/01/13 13:49:28;;;;;;;;;;;;;;;;;;4988458;28;19953;-69
2021/01/13 13:51:54;;;;;;;;;;;;;;;;;;4987991;28;20348;-70
2021/01/13 13:54:20;;;;;;;;;;;;;;;;;;4988872;28;19934;-67
2021/01/13 13:56:47;;;;;;;;;;;;;;;;;;4990822;28;19925;-69
2021/01/13 13:59:14;;;;;;;;;;;;;;;;;;4990477;28;19932;-66
2021/01/13 14:01:40;;;;;;;;;;;;;;;;;;4990705;28;19956;-67
2021/01/13 14:04:07;;;;;;;;;;;;;;;;;;4989053;28;19926;-68
2021/01/13 14:06:33;;;;;;;;;;;;;;;;;;4991945;28;20024;-66
2021/01/13 14:08:59;;;;;;;;;;;;;;;;;;4991426;28;20084;-66
2021/01/13 14:11:26;;;;;;;;;;;;;;;;;;4993663;28;19936;-67
2021/01/13 14:13:53;;;;;;;;;;;;;;;;;;4993529;28;19926;-67
2021/01/13 14:16:19;;;;;;;;;;;;;;;;;;4994640;28;23488;-68
2021/01/13 14:18:46;;;;;;;;;;;;;;;;;;4992990;28;19948;-68
2021/01/13 14:21:13;;;;;;;;;;;;;;;;;;4992847;28;19972;-66
2021/01/13 14:23:39;;;;;;;;;;;;;;;;;;4992420;28;20322;-70
2021/01/13 14:26:06;;;;;;;;;;;;;;;;;;4991913;28;19926;-68
2021/01/13 14:28:32;;;;;;;;;;;;;;;;;;4990159;28;19984;-67
2021/01/13 14:30:59;;;;;;;;;;;;;;;;;;4989988;28;19964;-69
2021/01/13 14:33:25;;;;;;;;;;;;;;;;;;4988198;28;19930;-67
2021/01/13 14:35:52;;;;;;;;;;;;;;;;;;4989290;28;19943;-68
2021/01/13 14:38:18;;;;;;;;;;;;;;;;;;4988223;28;20020;-65
2021/01/13 14:40:45;;;;;;;;;;;;;;;;;;4987458;28;19934;-67
2021/01/13 14:43:12;;;;;;;;;;;;;;;;;;4988804;28;19925;-68
2021/01/13 14:45:39;;;;;;;;;;;;;;;;;;4989422;28;19934;-67
2021/01/13 14:48:05;;;;;;;;;;;;;;;;;;4986532;28;20020;-70
2021/01/13 14:50:32;;;;;;;;;;;;;;;;;;4985801;28;19932;-67
2021/01/13 14:52:58;;;;;;;;;;;;;;;;;;4988865;28;19936;-70
2021/01/13 14:55:24;;;;;;;;;;;;;;;;;;4988342;28;19925;-72
2021/01/13 14:57:51;;;;;;;;;;;;;;;;;;4990116;28;20483;-71
2021/01/13 15:00:18;;;;;;;;;;;;;;;;;;4989466;28;19992;-66
2021/01/13 15:02:44;;;;;;;;;;;;;;;;;;4989702;28;19925;-69
2021/01/13 15:05:11;;;;;;;;;;;;;;;;;;4988622;28;20021;-69
2021/01/13 15:07:40;;;;;;;;;;;;;;;;;;4989595;28;20127;-67
2021/01/13 15:10:07;;;;;;;;;;;;;;;;;;4986109;28;19926;-70
2021/01/13 15:12:33;;;;;;;;;;;;;;;;;;4987093;28;19941;-67
2021/01/13 15:15:00;;;;;;;;;;;;;;;;;;4989384;28;20016;-68
2021/01/13 15:17:26;;;;;;;;;;;;;;;;;;4987748;28;19926;-66
2021/01/13 15:19:53;;;;;;;;;;;;;;;;;;4987904;28;19941;-71
2021/01/13 15:22:19;;;;;;;;;;;;;;;;;;4988091;28;19930;-67
2021/01/13 15:24:46;;;;;;;;;;;;;;;;;;4986666;28;19934;-67
2021/01/13 15:27:17;;;;;;;;;;;;;;;;;;4988534;28;20028;-67
2021/01/13 15:29:44;;;;;;;;;;;;;;;;;;4991843;28;19969;-73
2021/01/13 15:32:12;;;;;;;;;;;;;;;;;;4993832;28;20116;-68
2021/01/13 15:34:38;;;;;;;;;;;;;;;;;;4998707;28;19925;-65
2021/01/13 15:37:04;;;;;;;;;;;;;;;;;;4992050;28;20016;-69
2021/01/13 15:39:31;;;;;;;;;;;;;;;;;;4991055;28;20375;-69
2021/01/13 15:41:57;;;;;;;;;;;;;;;;;;4990299;28;20304;-69
2021/01/13 15:44:24;;;;;;;;;;;;;;;;;;4992267;28;20020;-67
2021/01/13 15:46:50;;;;;;;;;;;;;;;;;;4992796;28;19933;-69
2021/01/13 15:49:17;;;;;;;;;;;;;;;;;;4992072;28;19926;-68
2021/01/13 15:51:43;;;;;;;;;;;;;;;;;;4994812;28;20017;-67
2021/01/13 15:54:10;;;;;;;;;;;;;;;;;;4994087;28;19942;-69
2021/01/13 15:56:36;;;;;;;;;;;;;;;;;;4994811;28;19964;-68
2021/01/13 15:59:03;;;;;;;;;;;;;;;;;;4993741;28;19940;-69
2021/01/13 16:01:29;;;;;;;;;;;;;;;;;;4994140;28;19929;-68
2021/01/13 16:03:56;;;;;;;;;;;;;;;;;;4994452;28;19929;-71
2021/01/13 16:06:22;;;;;;;;;;;;;;;;;;4993920;28;19945;-70
2021/01/13 16:08:49;;;;;;;;;;;;;;;;;;4993767;28;19937;-67
2021/01/13 16:11:15;;;;;;;;;;;;;;;;;;4994891;28;19973;-68
2021/01/13 16:13:42;;;;;;;;;;;;;;;;;;4990802;28;19969;-67
2021/01/13 16:16:08;;;;;;;;;;;;;;;;;;4994045;28;19969;-69
2021/01/13 16:18:35;;;;;;;;;;;;;;;;;;4993553;28;20032;-70
2021/01/13 16:21:01;;;;;;;;;;;;;;;;;;4996303;28;19933;-67
2021/01/13 16:23:28;;;;;;;;;;;;;;;;;;4998221;28;20351;-67
2021/01/13 16:25:54;;;;;;;;;;;;;;;;;;4998584;28;19926;-67
2021/01/13 16:28:21;;;;;;;;;;;;;;;;;;4993481;28;19932;-71
2021/01/13 16:30:47;;;;;;;;;;;;;;;;;;4993937;28;20060;-68
2021/01/13 16:33:14;;;;;;;;;;;;;;;;;;4994302;28;19948;-67
2021/01/13 16:35:40;;;;;;;;;;;;;;;;;;4996307;28;19926;-70
2021/01/13 16:38:09;;;;;;;;;;;;;;;;;;4992265;28;19926;-69
2021/01/13 16:40:35;;;;;;;;;;;;;;;;;;4992744;28;19969;-69